createdAt,value
2019-04-16T00:01:59.519Z,13.10
2019-04-16T00:04:29.478Z,14.80
2019-04-16T00:07:15.465Z,13.00
2019-04-16T00:10:03.590Z,13.70
2019-04-16T00:12:36.275Z,14.60
2019-04-16T00:15:05.809Z,14.17
2019-04-16T00:17:34.099Z,14.00
2019-04-16T00:20:05.870Z,13.97
2019-04-16T00:22:46.385Z,17.40
2019-04-16T00:25:14.801Z,18.63
2019-04-16T00:27:43.116Z,14.60
2019-04-16T00:30:12.574Z,14.00
2019-04-16T00:32:42.590Z,13.20
2019-04-16T00:35:15.485Z,13.03
2019-04-16T00:37:42.610Z,13.30
2019-04-16T00:40:11.030Z,14.63
2019-04-16T00:42:39.467Z,14.43
2019-04-16T00:45:08.009Z,12.80
2019-04-16T00:47:36.292Z,13.97
2019-04-16T00:50:06.212Z,13.53
2019-04-16T00:52:36.935Z,14.13
2019-04-16T00:55:05.969Z,13.10
2019-04-16T00:57:34.265Z,13.00
2019-04-16T01:00:03.499Z,12.63
2019-04-16T01:02:31.851Z,13.30
2019-04-16T01:05:00.118Z,13.57
2019-04-16T01:07:28.388Z,13.07
2019-04-16T01:09:56.680Z,13.40
2019-04-16T01:12:24.954Z,12.87
2019-04-16T01:14:53.245Z,13.23
2019-04-16T01:17:21.521Z,12.63
2019-04-16T01:19:49.818Z,12.57
2019-04-16T01:22:18.166Z,13.43
2019-04-16T01:24:46.524Z,13.03
2019-04-16T01:27:15.386Z,12.90
2019-04-16T01:29:43.667Z,13.07
2019-04-16T01:32:13.586Z,13.63
2019-04-16T01:34:43.494Z,12.80
2019-04-16T01:37:19.475Z,13.57
2019-04-16T01:39:52.110Z,12.37
2019-04-16T01:42:23.379Z,13.03
2019-04-16T01:44:50.454Z,14.27
2019-04-16T01:47:18.728Z,12.40
2019-04-16T01:49:46.989Z,13.00
2019-04-16T01:52:18.678Z,13.60
2019-04-16T01:54:48.026Z,13.00
2019-04-16T01:57:16.297Z,13.80
2019-04-16T01:59:44.556Z,12.70
2019-04-16T02:02:15.752Z,12.90
2019-04-16T02:04:43.189Z,12.43
2019-04-16T02:07:11.462Z,13.30
2019-04-16T02:09:39.765Z,13.17
2019-04-16T02:12:12.977Z,12.27
2019-04-16T02:14:38.019Z,12.23
2019-04-16T02:17:06.279Z,11.87
2019-04-16T02:19:34.647Z,12.77
2019-04-16T02:22:02.975Z,11.90
2019-04-16T02:24:31.256Z,12.83
2019-04-16T02:26:59.519Z,13.20
2019-04-16T02:29:30.526Z,12.30
2019-04-16T02:31:57.824Z,12.03
2019-04-16T02:34:26.103Z,12.87
2019-04-16T02:37:00.577Z,12.43
2019-04-16T02:39:38.688Z,11.37
2019-04-16T02:41:58.127Z,11.87
2019-04-16T02:44:24.409Z,11.00
2019-04-16T02:46:52.665Z,12.70
2019-04-16T02:49:24.459Z,11.60
2019-04-16T02:51:55.650Z,12.20
2019-04-16T02:54:32.939Z,11.77
2019-04-16T02:57:09.051Z,11.23
2019-04-16T02:59:45.820Z,12.67
2019-04-16T03:02:13.462Z,11.10
2019-04-16T03:04:45.896Z,11.00
2019-04-16T03:07:14.298Z,11.03
2019-04-16T03:09:42.492Z,12.00
2019-04-16T03:12:10.771Z,11.33
2019-04-16T03:14:39.057Z,11.70
2019-04-16T03:17:11.941Z,11.10
2019-04-16T03:19:41.851Z,11.93
2019-04-16T03:22:10.141Z,11.80
2019-04-16T03:24:40.233Z,11.57
2019-04-16T03:27:08.394Z,10.67
2019-04-16T03:29:36.737Z,12.60
2019-04-16T03:32:05.016Z,11.93
2019-04-16T03:34:33.310Z,12.53
2019-04-16T03:37:02.075Z,12.77
2019-04-16T03:39:31.444Z,11.80
2019-04-16T03:41:59.689Z,11.90
2019-04-16T03:44:27.978Z,10.03
2019-04-16T03:46:56.760Z,11.57
2019-04-16T03:49:27.774Z,12.20
2019-04-16T03:51:55.061Z,11.50
2019-04-16T03:54:23.351Z,11.00
2019-04-16T03:56:51.718Z,11.27
2019-04-16T03:59:20.008Z,11.83
2019-04-16T04:01:48.292Z,11.83
2019-04-16T04:04:16.573Z,11.57
2019-04-16T04:06:44.927Z,12.07
2019-04-16T04:09:13.221Z,11.73
2019-04-16T04:11:42.002Z,11.60
2019-04-16T04:14:10.388Z,11.97
2019-04-16T04:16:38.766Z,10.83
2019-04-16T04:19:07.053Z,11.33
2019-04-16T04:21:35.330Z,11.67
2019-04-16T04:24:03.623Z,12.47
2019-04-16T04:26:31.878Z,12.67
2019-04-16T04:29:00.161Z,11.57
2019-04-16T04:31:32.127Z,11.80
2019-04-16T04:33:58.438Z,11.80
2019-04-16T04:36:28.248Z,13.20
2019-04-16T04:38:56.853Z,11.87
2019-04-16T04:41:25.113Z,12.33
2019-04-16T04:43:53.385Z,11.60
2019-04-16T04:46:21.650Z,13.43
2019-04-16T04:48:55.010Z,12.23
2019-04-16T04:51:19.940Z,12.07
2019-04-16T04:53:50.348Z,12.10
2019-04-16T04:56:19.551Z,12.20
2019-04-16T04:58:48.294Z,12.70
2019-04-16T05:01:16.628Z,12.00
2019-04-16T05:03:49.638Z,12.70
2019-04-16T05:06:19.542Z,14.93
2019-04-16T05:08:47.833Z,12.57
2019-04-16T05:11:16.963Z,12.00
2019-04-16T05:13:45.567Z,12.20
2019-04-16T05:16:13.841Z,11.80
2019-04-16T05:18:42.719Z,11.30
2019-04-16T05:21:11.239Z,12.07
2019-04-16T05:23:39.519Z,12.20
2019-04-16T05:26:09.835Z,12.10
2019-04-16T05:28:37.866Z,12.20
2019-04-16T05:31:06.139Z,11.40
2019-04-16T05:33:37.212Z,11.57
2019-04-16T05:36:04.509Z,13.53
2019-04-16T05:38:32.767Z,11.50
2019-04-16T05:41:12.479Z,12.40
2019-04-16T05:43:31.252Z,12.30
2019-04-16T05:45:59.801Z,10.60
2019-04-16T05:48:28.062Z,16.00
2019-04-16T05:50:59.710Z,14.00
2019-04-16T05:53:26.405Z,13.70
2019-04-16T05:55:57.449Z,12.17
2019-04-16T05:58:27.509Z,13.17
2019-04-16T06:01:00.435Z,12.67
2019-04-16T06:03:28.782Z,13.70
2019-04-16T06:05:59.240Z,11.70
2019-04-16T06:08:27.056Z,11.93
2019-04-16T06:10:57.478Z,12.20
2019-04-16T06:13:29.699Z,12.47
2019-04-16T06:16:08.087Z,11.70
2019-04-16T06:18:49.783Z,12.60
2019-04-16T06:21:19.698Z,12.63
2019-04-16T06:24:05.722Z,12.80
2019-04-16T06:26:51.628Z,11.70
2019-04-16T06:29:33.739Z,11.53
2019-04-16T06:32:11.908Z,11.23
2019-04-16T06:34:57.467Z,11.77
2019-04-16T06:37:27.952Z,12.50
2019-04-16T06:40:12.982Z,12.20
2019-04-16T06:42:42.928Z,13.17
2019-04-16T06:45:28.323Z,12.33
2019-04-16T06:47:58.253Z,11.70
2019-04-16T06:50:32.116Z,11.60
2019-04-16T06:53:19.871Z,11.00
2019-04-16T06:55:57.942Z,11.87
2019-04-16T06:58:51.384Z,12.67
2019-04-16T07:04:20.267Z,11.60
2019-04-16T07:07:08.402Z,11.60
2019-04-16T07:09:41.676Z,12.50
2019-04-16T07:12:09.439Z,12.73
2019-04-16T07:14:37.728Z,13.00
2019-04-16T07:17:05.993Z,12.33
2019-04-16T07:19:34.271Z,12.10
2019-04-16T07:22:02.543Z,11.10
2019-04-16T07:24:32.067Z,12.30
2019-04-16T07:27:00.900Z,12.03
2019-04-16T07:29:32.708Z,12.43
2019-04-16T07:32:03.089Z,11.00
2019-04-16T07:34:33.201Z,12.30
2019-04-16T07:37:03.130Z,12.17
2019-04-16T07:39:50.879Z,12.13
2019-04-16T07:42:22.321Z,12.47
2019-04-16T07:45:11.679Z,13.00
2019-04-16T07:47:40.133Z,12.43
2019-04-16T07:50:16.789Z,13.07
2019-04-16T07:52:55.708Z,11.40
2019-04-16T07:55:45.980Z,12.20
2019-04-16T07:58:14.255Z,12.93
2019-04-16T08:00:42.518Z,13.03
2019-04-16T08:03:10.807Z,13.20
2019-04-16T08:05:41.248Z,12.70
2019-04-16T08:08:09.170Z,12.97
2019-04-16T08:10:37.441Z,11.93
2019-04-16T08:13:07.381Z,12.17
2019-04-16T08:15:35.790Z,13.00
2019-04-16T08:18:04.054Z,11.87
2019-04-16T08:20:33.098Z,11.53
2019-04-16T08:23:05.927Z,12.33
2019-04-16T08:25:34.974Z,13.10
2019-04-16T08:28:06.575Z,12.67
2019-04-16T08:30:39.008Z,12.53
2019-04-16T08:33:03.391Z,13.40
2019-04-16T08:35:31.666Z,12.67
2019-04-16T08:37:59.926Z,12.67
2019-04-16T08:40:28.187Z,13.40
2019-04-16T08:42:57.297Z,13.60
2019-04-16T08:45:26.639Z,12.30
2019-04-16T08:47:54.899Z,12.90
2019-04-16T08:50:25.859Z,12.80
2019-04-16T08:52:53.164Z,13.10
2019-04-16T08:55:23.586Z,12.20
2019-04-16T08:57:51.428Z,12.73
2019-04-16T09:00:19.754Z,12.70
2019-04-16T09:02:48.024Z,12.97
2019-04-16T09:05:16.321Z,13.03
2019-04-16T09:07:44.593Z,13.03
2019-04-16T09:10:21.379Z,13.07
2019-04-16T09:12:50.957Z,12.50
2019-04-16T09:15:18.095Z,13.80
2019-04-16T09:17:48.002Z,13.00
2019-04-16T09:20:17.908Z,13.20
2019-04-16T09:22:49.115Z,12.50
2019-04-16T09:25:17.826Z,13.93
2019-04-16T09:27:47.757Z,14.70
2019-04-16T09:30:33.651Z,13.27
2019-04-16T09:33:06.457Z,13.77
2019-04-16T09:35:36.363Z,14.37
2019-04-16T09:38:21.571Z,12.50
2019-04-16T09:41:09.741Z,13.60
2019-04-16T09:43:57.114Z,13.87
2019-04-16T09:46:48.779Z,14.10
2019-04-16T09:48:55.244Z,15.10
2019-04-16T09:51:25.368Z,13.00
2019-04-16T09:53:53.516Z,13.60
2019-04-16T09:56:30.033Z,15.53
2019-04-16T09:59:01.510Z,14.90
2019-04-16T10:01:31.451Z,14.20
2019-04-16T10:04:00.297Z,14.83
2019-04-16T10:06:28.579Z,14.40
2019-04-16T10:08:57.003Z,15.00
2019-04-16T10:11:25.329Z,15.53
2019-04-16T10:13:53.673Z,15.00
2019-04-16T10:16:23.578Z,14.00
2019-04-16T10:18:51.874Z,15.20
2019-04-16T10:21:20.364Z,14.47
2019-04-16T10:23:56.460Z,14.10
2019-04-16T10:26:24.727Z,14.27
2019-04-16T10:28:53.684Z,13.90
2019-04-16T10:31:23.772Z,14.80
2019-04-16T10:33:52.031Z,14.87
2019-04-16T10:36:20.305Z,14.67
2019-04-16T10:38:50.257Z,15.30
2019-04-16T10:41:20.165Z,14.33
2019-04-16T10:43:50.082Z,14.43
2019-04-16T10:46:20.012Z,15.33
2019-04-16T10:48:52.870Z,15.30
2019-04-16T10:51:22.777Z,14.97
2019-04-16T10:53:52.688Z,15.27
2019-04-16T10:56:28.841Z,14.87
2019-04-16T10:58:58.755Z,15.70
2019-04-16T11:01:32.945Z,14.83
2019-04-16T11:04:00.261Z,15.80
2019-04-16T11:06:30.200Z,15.67
2019-04-16T11:09:05.450Z,16.37
2019-04-16T11:11:36.142Z,15.73
2019-04-16T11:14:04.597Z,15.27
2019-04-16T11:16:35.876Z,15.10
2019-04-16T11:19:02.967Z,16.73
2019-04-16T11:21:31.191Z,16.07
2019-04-16T11:23:59.448Z,16.03
2019-04-16T11:26:27.731Z,17.00
2019-04-16T11:28:56.030Z,17.00
2019-04-16T11:31:26.127Z,15.03
2019-04-16T11:33:54.420Z,15.70
2019-04-16T11:36:22.718Z,17.27
2019-04-16T11:38:50.991Z,13.77
2019-04-16T11:41:19.360Z,15.23
2019-04-16T11:43:47.616Z,14.80
2019-04-16T11:46:16.193Z,14.77
2019-04-16T11:48:44.420Z,14.70
2019-04-16T11:51:12.669Z,15.60
2019-04-16T11:53:41.035Z,15.10
2019-04-16T11:56:09.294Z,15.77
2019-04-16T11:58:39.206Z,16.20
2019-04-16T12:01:09.206Z,16.77
2019-04-16T12:03:44.867Z,16.33
2019-04-16T12:06:31.253Z,15.63
2019-04-16T12:09:19.323Z,15.27
2019-04-16T12:11:49.252Z,16.40
2019-04-16T12:14:35.429Z,17.03
2019-04-16T12:17:15.157Z,17.10
2019-04-16T12:20:00.435Z,16.30
2019-04-16T12:22:36.494Z,15.77
2019-04-16T12:25:13.350Z,16.73
2019-04-16T12:27:52.409Z,15.83
2019-04-16T12:30:38.353Z,16.37
2019-04-16T12:33:13.927Z,16.00
2019-04-16T12:35:45.186Z,16.27
2019-04-16T12:38:30.280Z,16.27
2019-04-16T12:41:09.038Z,15.97
2019-04-16T12:43:51.641Z,15.47
2019-04-16T12:46:27.146Z,16.83
2019-04-16T12:48:59.779Z,17.63
2019-04-16T12:51:40.782Z,15.33
2019-04-16T12:54:26.374Z,16.80
2019-04-16T12:57:10.664Z,14.90
2019-04-16T12:59:39.980Z,15.60
2019-04-16T13:02:21.865Z,14.07
2019-04-16T13:04:51.800Z,15.20
2019-04-16T13:07:27.953Z,14.60
2019-04-16T13:10:03.860Z,14.03
2019-04-16T13:12:36.653Z,15.10
2019-04-16T13:15:10.950Z,15.40
2019-04-16T13:17:56.729Z,13.80
2019-04-16T13:20:38.483Z,13.00
2019-04-16T13:23:08.399Z,13.87
2019-04-16T13:25:44.065Z,11.60
2019-04-16T13:28:12.369Z,11.10
2019-04-16T13:30:40.652Z,12.07
2019-04-16T13:33:08.939Z,12.73
2019-04-16T13:35:37.237Z,13.20
2019-04-16T13:38:09.534Z,12.13
2019-04-16T13:40:35.606Z,10.00
2019-04-16T13:43:05.890Z,11.43
2019-04-16T13:45:35.605Z,10.87
2019-04-16T13:48:15.979Z,10.53
2019-04-16T13:50:50.863Z,11.00
2019-04-16T13:53:28.701Z,10.30
2019-04-16T13:56:10.938Z,12.00
2019-04-16T13:58:43.345Z,12.83
2019-04-16T14:01:22.189Z,11.30
2019-04-16T14:03:50.474Z,10.20
2019-04-16T14:06:18.809Z,12.20
2019-04-16T14:08:47.068Z,11.67
2019-04-16T14:11:16.556Z,11.93
2019-04-16T14:13:46.421Z,11.43
2019-04-16T14:16:15.394Z,11.00
2019-04-16T14:18:43.664Z,10.00
2019-04-16T14:21:12.012Z,10.70
2019-04-16T14:23:40.304Z,10.27
2019-04-16T14:26:08.594Z,9.97
2019-04-16T14:28:51.294Z,10.10
2019-04-16T14:31:06.865Z,11.63
2019-04-16T14:33:42.826Z,11.63
2019-04-16T14:36:12.802Z,11.30
2019-04-16T14:38:51.823Z,12.10
2019-04-16T14:41:20.133Z,12.87
2019-04-16T14:43:50.099Z,11.90
2019-04-16T14:46:18.377Z,11.60
2019-04-16T14:48:46.855Z,10.13
2019-04-16T14:51:15.254Z,11.67
2019-04-16T14:53:45.163Z,12.73
2019-04-16T14:56:20.882Z,13.30
2019-04-16T14:58:50.881Z,13.63
2019-04-16T15:01:20.788Z,13.10
2019-04-16T15:03:50.724Z,12.10
2019-04-16T15:06:26.610Z,13.07
2019-04-16T15:09:05.559Z,13.17
2019-04-16T15:11:51.617Z,14.93
2019-04-16T15:14:23.402Z,12.40
2019-04-16T15:17:12.240Z,12.43
2019-04-16T15:19:49.590Z,12.97
2019-04-16T15:22:35.967Z,15.67
2019-04-16T15:25:07.924Z,14.73
2019-04-16T15:27:53.775Z,14.10
2019-04-16T15:30:29.432Z,14.00
2019-04-16T15:33:15.768Z,14.50
2019-04-16T15:36:02.199Z,16.80
2019-04-16T15:38:37.852Z,16.63
2019-04-16T15:41:17.242Z,15.07
2019-04-16T15:44:01.608Z,16.90
2019-04-16T15:46:41.381Z,14.83
2019-04-16T15:49:30.054Z,16.23
2019-04-16T15:52:16.394Z,16.53
2019-04-16T15:54:49.100Z,16.40
2019-04-16T15:57:35.458Z,17.27
2019-04-16T16:00:12.726Z,17.80
2019-04-16T16:02:59.184Z,18.20
2019-04-16T16:05:29.089Z,15.17
2019-04-16T16:08:02.003Z,16.67
2019-04-16T16:10:33.153Z,18.33
2019-04-16T16:13:01.519Z,17.90
2019-04-16T16:15:29.879Z,16.73
2019-04-16T16:17:58.179Z,18.50
2019-04-16T16:20:27.652Z,19.17
2019-04-16T16:22:58.151Z,17.60
2019-04-16T16:25:25.918Z,18.57
2019-04-16T16:27:54.246Z,17.80
2019-04-16T16:30:22.466Z,16.40
2019-04-16T16:32:50.783Z,16.73
2019-04-16T16:35:19.074Z,17.73
2019-04-16T16:37:47.364Z,17.20
2019-04-16T16:40:16.175Z,16.73
2019-04-16T16:42:44.558Z,16.60
2019-04-16T16:45:12.984Z,16.80
2019-04-16T16:47:41.280Z,16.40
2019-04-16T16:50:11.708Z,17.97
2019-04-16T16:52:41.627Z,17.87
2019-04-16T16:55:21.757Z,18.73
2019-04-16T16:58:03.692Z,17.90
2019-04-16T17:00:45.674Z,19.20
2019-04-16T17:03:18.720Z,16.20
2019-04-16T17:05:47.012Z,18.53
2019-04-16T17:08:15.279Z,17.90
2019-04-16T17:10:43.569Z,17.27
2019-04-16T17:13:14.559Z,16.33
2019-04-16T17:15:41.920Z,17.83
2019-04-16T17:18:10.183Z,18.33
2019-04-16T17:20:41.193Z,16.90
2019-04-16T17:23:08.502Z,17.00
2019-04-16T17:25:37.098Z,18.20
2019-04-16T17:28:05.404Z,16.93
2019-04-16T17:30:33.751Z,16.90
2019-04-16T17:33:02.052Z,17.57
2019-04-16T17:35:30.491Z,18.00
2019-04-16T17:38:02.713Z,16.50
2019-04-16T17:40:37.180Z,16.10
2019-04-16T17:43:12.943Z,17.13
2019-04-16T17:45:54.945Z,17.93
2019-04-16T17:48:24.874Z,17.17
2019-04-16T17:51:06.739Z,17.33
2019-04-16T17:53:42.343Z,16.90
2019-04-16T17:56:28.390Z,18.10
2019-04-16T17:58:58.320Z,16.90
2019-04-16T18:01:34.215Z,17.07
2019-04-16T18:04:04.487Z,17.00
2019-04-16T18:06:50.641Z,11.50
2019-04-16T18:09:23.282Z,10.40
2019-04-16T18:11:58.929Z,9.10
2019-04-16T18:14:41.095Z,8.70
2019-04-16T18:17:13.974Z,7.60
2019-04-16T18:20:00.033Z,6.83
2019-04-16T18:22:32.657Z,5.87
2019-04-16T18:27:44.389Z,5.07
2019-04-16T18:30:32.591Z,5.40
2019-04-16T18:33:20.730Z,4.60
2019-04-16T18:35:53.301Z,5.30
2019-04-16T18:38:23.387Z,4.20
2019-04-16T18:41:09.663Z,4.50
2019-04-16T18:43:51.562Z,4.50
2019-04-16T18:46:37.521Z,5.40
2019-04-16T18:49:23.425Z,4.97
2019-04-16T18:51:51.697Z,5.40
2019-04-16T18:54:20.049Z,5.20
2019-04-16T18:56:48.396Z,4.57
2019-04-16T18:59:16.684Z,5.60
2019-04-16T19:01:46.571Z,5.53
2019-04-16T19:04:14.838Z,4.90
2019-04-16T19:06:43.169Z,4.70
2019-04-16T19:09:11.429Z,5.17
2019-04-16T19:11:39.705Z,5.40
2019-04-16T19:14:10.334Z,4.80
2019-04-16T19:16:38.053Z,4.90
2019-04-16T19:19:06.703Z,4.97
2019-04-16T19:21:35.297Z,5.03
2019-04-16T19:24:03.564Z,5.10
2019-04-16T19:26:31.852Z,4.57
2019-04-16T19:29:00.256Z,4.00
2019-04-16T19:31:28.536Z,3.40
2019-04-16T19:33:56.915Z,3.50
2019-04-16T19:36:27.507Z,3.80
2019-04-16T19:38:55.142Z,3.83
2019-04-16T19:41:24.503Z,3.33
2019-04-16T19:43:53.096Z,2.83
2019-04-16T19:46:21.362Z,3.40
2019-04-16T19:48:49.944Z,3.13
2019-04-16T19:51:19.851Z,2.93
2019-04-16T19:53:48.574Z,3.20
2019-04-16T19:56:18.648Z,3.07
2019-04-16T19:58:48.148Z,2.83
2019-04-16T20:01:16.512Z,3.33
2019-04-16T20:03:44.841Z,2.40
2019-04-16T20:06:13.232Z,3.13
2019-04-16T20:08:41.659Z,2.83
2019-04-16T20:11:09.926Z,3.43
2019-04-16T20:13:38.207Z,3.20
2019-04-16T20:16:06.744Z,3.20
2019-04-16T20:18:50.008Z,3.10
2019-04-16T20:21:05.157Z,2.90
2019-04-16T20:23:33.458Z,3.00
2019-04-16T20:26:01.737Z,3.27
2019-04-16T20:28:30.114Z,3.40
2019-04-16T20:31:03.250Z,3.90
2019-04-16T20:33:28.695Z,3.67
2019-04-16T20:35:56.973Z,3.57
2019-04-16T20:38:29.016Z,2.90
2019-04-16T20:40:55.471Z,2.80
2019-04-16T20:43:23.780Z,3.33
2019-04-16T20:45:52.066Z,3.50
2019-04-16T20:48:21.251Z,3.63
2019-04-16T20:50:52.683Z,3.40
2019-04-16T20:53:19.546Z,2.97
2019-04-16T20:55:48.294Z,3.63
2019-04-16T20:58:16.549Z,3.10
2019-04-16T21:00:46.536Z,2.90
2019-04-16T21:03:22.346Z,3.70
2019-04-16T21:05:57.444Z,3.40
2019-04-16T21:08:17.155Z,3.50
2019-04-16T21:10:44.803Z,4.63
2019-04-16T21:13:15.951Z,3.90
2019-04-16T21:15:43.072Z,4.33
2019-04-16T21:18:12.242Z,4.57
2019-04-16T21:20:40.601Z,3.70
2019-04-16T21:23:08.885Z,4.50
2019-04-16T21:25:37.276Z,4.40
2019-04-16T21:28:12.826Z,4.33
2019-04-16T21:30:43.416Z,4.47
2019-04-16T21:33:31.904Z,4.83
2019-04-16T21:36:04.743Z,3.60
2019-04-16T21:38:45.198Z,3.90
2019-04-16T21:41:12.608Z,5.30
2019-04-16T21:43:41.987Z,4.90
2019-04-16T21:46:10.247Z,5.17
2019-04-16T21:48:42.296Z,4.67
2019-04-16T21:51:19.071Z,4.63
2019-04-16T21:53:44.619Z,4.33
2019-04-16T21:56:14.718Z,4.60
2019-04-16T21:58:43.207Z,4.70
2019-04-16T22:01:13.105Z,4.20
2019-04-16T22:03:42.970Z,4.00
2019-04-16T22:06:11.327Z,4.50
2019-04-16T22:08:39.611Z,4.80
2019-04-16T22:11:09.026Z,4.70
2019-04-16T22:13:37.846Z,7.03
2019-04-16T22:16:06.105Z,5.93
2019-04-16T22:18:34.390Z,4.50
2019-04-16T22:21:02.632Z,4.60
2019-04-16T22:23:30.921Z,4.90
2019-04-16T22:26:01.355Z,5.10
2019-04-16T22:28:29.197Z,4.63
2019-04-16T22:30:57.506Z,4.67
2019-04-16T22:33:25.788Z,4.43
2019-04-16T22:35:54.064Z,4.90
2019-04-16T22:38:22.447Z,4.40
2019-04-16T22:40:54.961Z,5.07
2019-04-16T22:43:43.754Z,5.20
2019-04-16T22:46:13.670Z,4.03
2019-04-16T22:48:58.391Z,4.50
2019-04-16T22:51:26.804Z,4.87
2019-04-16T22:53:55.091Z,4.87
2019-04-16T22:56:28.313Z,5.37
2019-04-16T22:58:55.535Z,4.37
2019-04-16T23:01:27.872Z,4.90
2019-04-16T23:03:56.385Z,4.07
2019-04-16T23:06:24.738Z,4.50
2019-04-16T23:08:52.993Z,4.77
2019-04-16T23:11:23.764Z,4.93
2019-04-16T23:13:51.400Z,4.40
2019-04-16T23:16:19.681Z,5.20
2019-04-16T23:18:49.320Z,4.40
2019-04-16T23:21:17.941Z,4.33
2019-04-16T23:23:47.711Z,4.77
2019-04-16T23:26:16.214Z,4.70
2019-04-16T23:28:47.802Z,4.17
2019-04-16T23:31:16.062Z,16.67
2019-04-16T23:33:44.315Z,4.80
2019-04-16T23:36:15.885Z,4.40
2019-04-16T23:38:42.578Z,4.60
2019-04-16T23:41:15.400Z,4.70
2019-04-16T23:43:54.856Z,4.37
2019-04-16T23:46:41.004Z,4.50
2019-04-16T23:49:27.059Z,4.40
2019-04-16T23:52:01.797Z,4.80
2019-04-16T23:54:28.635Z,3.90
2019-04-16T23:56:58.535Z,4.57
2019-04-16T23:59:28.429Z,4.40
